sensor_id;sensor_type;location;lat;lon;timestamp;P1;durP1;ratioP1;P2;durP2;ratioP2
57567;SDS011;43403;51.948;5.922;2024-01-15T00:00:48;6.18;;;1.00;;
57567;SDS011;43403;51.948;5.922;2024-01-15T00:03:15;8.50;;;1.35;;
57567;SDS011;43403;51.948;5.922;2024-01-15T00:05:41;6.65;;;0.90;;
57567;SDS011;43403;51.948;5.922;2024-01-15T00:08:08;3.20;;;0.80;;
57567;SDS011;43403;51.948;5.922;2024-01-15T00:10:34;2.65;;;0.98;;
57567;SDS011;43403;51.948;5.922;2024-01-15T00:13:01;8.35;;;1.30;;
57567;SDS011;43403;51.948;5.922;2024-01-15T00:15:27;6.57;;;1.00;;
57567;SDS011;43403;51.948;5.922;2024-01-15T00:17:55;3.17;;;1.00;;
57567;SDS011;43403;51.948;5.922;2024-01-15T00:20:21;6.30;;;1.10;;
57567;SDS011;43403;51.948;5.922;2024-01-15T00:22:48;2.83;;;0.70;;
57567;SDS011;43403;51.948;5.922;2024-01-15T00:25:14;5.60;;;0.98;;
57567;SDS011;43403;51.948;5.922;2024-01-15T00:27:41;6.50;;;0.80;;
57567;SDS011;43403;51.948;5.922;2024-01-15T00:30:07;6.72;;;1.00;;
57567;SDS011;43403;51.948;5.922;2024-01-15T00:32:34;4.72;;;1.52;;
57567;SDS011;43403;51.948;5.922;2024-01-15T00:35:02;5.07;;;0.85;;
57567;SDS011;43403;51.948;5.922;2024-01-15T00:37:29;6.72;;;1.20;;
57567;SDS011;43403;51.948;5.922;2024-01-15T00:39:56;5.40;;;1.10;;
57567;SDS011;43403;51.948;5.922;2024-01-15T00:42:22;6.20;;;0.85;;
57567;SDS011;43403;51.948;5.922;2024-01-15T00:44:49;6.15;;;0.70;;
57567;SDS011;43403;51.948;5.922;2024-01-15T00:47:15;6.50;;;1.20;;
57567;SDS011;43403;51.948;5.922;2024-01-15T00:49:44;6.03;;;0.93;;
57567;SDS011;43403;51.948;5.922;2024-01-15T00:52:11;5.40;;;0.80;;
57567;SDS011;43403;51.948;5.922;2024-01-15T00:54:37;5.07;;;0.93;;
57567;SDS011;43403;51.948;5.922;2024-01-15T00:57:04;4.13;;;0.70;;
57567;SDS011;43403;51.948;5.922;2024-01-15T00:59:30;4.60;;;1.08;;
57567;SDS011;43403;51.948;5.922;2024-01-15T01:01:57;6.95;;;1.00;;
57567;SDS011;43403;51.948;5.922;2024-01-15T01:04:23;6.25;;;0.82;;
57567;SDS011;43403;51.948;5.922;2024-01-15T01:06:50;5.80;;;0.80;;
57567;SDS011;43403;51.948;5.922;2024-01-15T01:09:16;8.88;;;1.50;;
57567;SDS011;43403;51.948;5.922;2024-01-15T01:11:43;7.40;;;1.05;;
57567;SDS011;43403;51.948;5.922;2024-01-15T01:14:09;8.27;;;1.02;;
57567;SDS011;43403;51.948;5.922;2024-01-15T01:16:36;6.65;;;1.73;;
57567;SDS011;43403;51.948;5.922;2024-01-15T01:19:05;4.20;;;0.68;;
57567;SDS011;43403;51.948;5.922;2024-01-15T01:21:33;8.23;;;1.23;;
57567;SDS011;43403;51.948;5.922;2024-01-15T01:24:00;7.30;;;1.10;;
57567;SDS011;43403;51.948;5.922;2024-01-15T01:26:26;6.57;;;1.00;;
57567;SDS011;43403;51.948;5.922;2024-01-15T01:28:53;8.15;;;1.08;;
57567;SDS011;43403;51.948;5.922;2024-01-15T01:31:20;6.10;;;1.00;;
57567;SDS011;43403;51.948;5.922;2024-01-15T01:33:46;6.25;;;0.93;;
57567;SDS011;43403;51.948;5.922;2024-01-15T01:36:13;5.47;;;1.23;;
57567;SDS011;43403;51.948;5.922;2024-01-15T01:38:39;4.50;;;1.15;;
57567;SDS011;43403;51.948;5.922;2024-01-15T01:41:06;7.63;;;1.23;;
57567;SDS011;43403;51.948;5.922;2024-01-15T01:43:32;6.15;;;1.23;;
57567;SDS011;43403;51.948;5.922;2024-01-15T01:46:00;10.07;;;1.40;;
57567;SDS011;43403;51.948;5.922;2024-01-15T01:48:26;6.73;;;1.10;;
57567;SDS011;43403;51.948;5.922;2024-01-15T01:50:54;12.27;;;1.40;;
57567;SDS011;43403;51.948;5.922;2024-01-15T01:53:21;6.53;;;1.17;;
57567;SDS011;43403;51.948;5.922;2024-01-15T01:55:47;8.50;;;1.67;;
57567;SDS011;43403;51.948;5.922;2024-01-15T01:58:14;12.38;;;1.65;;
57567;SDS011;43403;51.948;5.922;2024-01-15T02:00:41;7.78;;;1.73;;
57567;SDS011;43403;51.948;5.922;2024-01-15T02:03:08;7.47;;;1.58;;
57567;SDS011;43403;51.948;5.922;2024-01-15T02:05:34;5.40;;;1.33;;
57567;SDS011;43403;51.948;5.922;2024-01-15T02:08:01;9.38;;;1.73;;
57567;SDS011;43403;51.948;5.922;2024-01-15T02:10:27;6.82;;;1.38;;
57567;SDS011;43403;51.948;5.922;2024-01-15T02:12:54;11.98;;;1.55;;
57567;SDS011;43403;51.948;5.922;2024-01-15T02:15:20;14.85;;;1.38;;
57567;SDS011;43403;51.948;5.922;2024-01-15T02:18:00;8.13;;;1.33;;
57567;SDS011;43403;51.948;5.922;2024-01-15T02:20:27;9.50;;;1.77;;
57567;SDS011;43403;51.948;5.922;2024-01-15T02:22:54;8.05;;;1.48;;
57567;SDS011;43403;51.948;5.922;2024-01-15T02:25:20;7.22;;;1.10;;
57567;SDS011;43403;51.948;5.922;2024-01-15T02:27:47;17.23;;;1.45;;
57567;SDS011;43403;51.948;5.922;2024-01-15T02:30:13;7.20;;;1.65;;
57567;SDS011;43403;51.948;5.922;2024-01-15T02:32:40;5.63;;;2.03;;
57567;SDS011;43403;51.948;5.922;2024-01-15T02:35:07;12.13;;;1.40;;
57567;SDS011;43403;51.948;5.922;2024-01-15T02:37:33;10.80;;;1.30;;
57567;SDS011;43403;51.948;5.922;2024-01-15T02:40:00;15.18;;;1.42;;
57567;SDS011;43403;51.948;5.922;2024-01-15T02:42:26;11.55;;;1.30;;
57567;SDS011;43403;51.948;5.922;2024-01-15T02:44:53;5.13;;;1.17;;
57567;SDS011;43403;51.948;5.922;2024-01-15T02:47:19;10.20;;;1.67;;
57567;SDS011;43403;51.948;5.922;2024-01-15T02:49:46;9.68;;;1.67;;
57567;SDS011;43403;51.948;5.922;2024-01-15T02:52:12;9.60;;;1.60;;
57567;SDS011;43403;51.948;5.922;2024-01-15T02:54:39;7.68;;;1.33;;
57567;SDS011;43403;51.948;5.922;2024-01-15T02:57:05;11.13;;;1.30;;
57567;SDS011;43403;51.948;5.922;2024-01-15T02:59:31;8.82;;;1.40;;
57567;SDS011;43403;51.948;5.922;2024-01-15T03:01:58;13.35;;;1.92;;
57567;SDS011;43403;51.948;5.922;2024-01-15T03:04:24;11.88;;;1.33;;
57567;SDS011;43403;51.948;5.922;2024-01-15T03:06:51;11.23;;;1.77;;
57567;SDS011;43403;51.948;5.922;2024-01-15T03:09:17;15.35;;;2.22;;
57567;SDS011;43403;51.948;5.922;2024-01-15T03:11:44;6.78;;;1.05;;
57567;SDS011;43403;51.948;5.922;2024-01-15T03:14:10;11.30;;;1.35;;
57567;SDS011;43403;51.948;5.922;2024-01-15T03:16:37;9.20;;;1.63;;
57567;SDS011;43403;51.948;5.922;2024-01-15T03:19:03;11.00;;;1.38;;
57567;SDS011;43403;51.948;5.922;2024-01-15T03:21:30;13.43;;;1.95;;
57567;SDS011;43403;51.948;5.922;2024-01-15T03:23:57;10.93;;;1.30;;
57567;SDS011;43403;51.948;5.922;2024-01-15T03:26:24;11.75;;;1.50;;
57567;SDS011;43403;51.948;5.922;2024-01-15T03:28:51;8.25;;;1.65;;
57567;SDS011;43403;51.948;5.922;2024-01-15T03:31:17;8.00;;;1.10;;
57567;SDS011;43403;51.948;5.922;2024-01-15T03:33:44;9.38;;;1.20;;
57567;SDS011;43403;51.948;5.922;2024-01-15T03:36:13;13.43;;;1.20;;
57567;SDS011;43403;51.948;5.922;2024-01-15T03:38:40;9.82;;;1.40;;
57567;SDS011;43403;51.948;5.922;2024-01-15T03:41:07;6.32;;;0.93;;
57567;SDS011;43403;51.948;5.922;2024-01-15T03:43:34;7.78;;;1.05;;
57567;SDS011;43403;51.948;5.922;2024-01-15T03:46:00;6.38;;;0.90;;
57567;SDS011;43403;51.948;5.922;2024-01-15T03:48:28;3.85;;;0.80;;
57567;SDS011;43403;51.948;5.922;2024-01-15T03:50:54;7.40;;;0.80;;
57567;SDS011;43403;51.948;5.922;2024-01-15T03:53:21;10.48;;;1.40;;
57567;SDS011;43403;51.948;5.922;2024-01-15T03:55:47;5.78;;;1.27;;
57567;SDS011;43403;51.948;5.922;2024-01-15T03:58:14;9.88;;;1.58;;
57567;SDS011;43403;51.948;5.922;2024-01-15T04:00:41;8.07;;;1.10;;
57567;SDS011;43403;51.948;5.922;2024-01-15T04:03:08;4.18;;;0.63;;
57567;SDS011;43403;51.948;5.922;2024-01-15T04:05:35;6.53;;;0.98;;
57567;SDS011;43403;51.948;5.922;2024-01-15T04:08:01;4.65;;;0.75;;
57567;SDS011;43403;51.948;5.922;2024-01-15T04:10:28;6.22;;;0.70;;
57567;SDS011;43403;51.948;5.922;2024-01-15T04:12:54;10.93;;;1.10;;
57567;SDS011;43403;51.948;5.922;2024-01-15T04:15:21;9.32;;;0.93;;
57567;SDS011;43403;51.948;5.922;2024-01-15T04:17:47;6.90;;;1.27;;
57567;SDS011;43403;51.948;5.922;2024-01-15T04:20:13;12.13;;;1.73;;
57567;SDS011;43403;51.948;5.922;2024-01-15T04:22:40;8.27;;;1.35;;
57567;SDS011;43403;51.948;5.922;2024-01-15T04:25:06;6.22;;;1.00;;
57567;SDS011;43403;51.948;5.922;2024-01-15T04:27:33;7.93;;;1.10;;
57567;SDS011;43403;51.948;5.922;2024-01-15T04:29:59;6.03;;;0.90;;
57567;SDS011;43403;51.948;5.922;2024-01-15T04:32:26;5.72;;;1.30;;
57567;SDS011;43403;51.948;5.922;2024-01-15T04:34:53;8.55;;;1.08;;
57567;SDS011;43403;51.948;5.922;2024-01-15T04:37:19;11.77;;;1.50;;
57567;SDS011;43403;51.948;5.922;2024-01-15T04:39:46;8.27;;;0.95;;
57567;SDS011;43403;51.948;5.922;2024-01-15T04:42:12;7.38;;;1.45;;
57567;SDS011;43403;51.948;5.922;2024-01-15T04:44:39;7.70;;;1.15;;
57567;SDS011;43403;51.948;5.922;2024-01-15T04:47:05;5.78;;;0.88;;
57567;SDS011;43403;51.948;5.922;2024-01-15T04:49:32;7.30;;;1.40;;
57567;SDS011;43403;51.948;5.922;2024-01-15T04:51:58;6.55;;;0.90;;
57567;SDS011;43403;51.948;5.922;2024-01-15T04:54:25;8.73;;;0.90;;
57567;SDS011;43403;51.948;5.922;2024-01-15T04:56:51;8.60;;;1.13;;
57567;SDS011;43403;51.948;5.922;2024-01-15T04:59:17;8.65;;;1.30;;
57567;SDS011;43403;51.948;5.922;2024-01-15T05:01:44;10.80;;;1.92;;
57567;SDS011;43403;51.948;5.922;2024-01-15T05:04:10;4.55;;;1.00;;
57567;SDS011;43403;51.948;5.922;2024-01-15T05:06:37;7.13;;;1.30;;
57567;SDS011;43403;51.948;5.922;2024-01-15T05:09:03;9.05;;;1.10;;
57567;SDS011;43403;51.948;5.922;2024-01-15T05:11:30;8.38;;;1.52;;
57567;SDS011;43403;51.948;5.922;2024-01-15T05:13:57;8.73;;;1.83;;
57567;SDS011;43403;51.948;5.922;2024-01-15T05:16:23;5.15;;;1.25;;
57567;SDS011;43403;51.948;5.922;2024-01-15T05:18:49;11.38;;;1.58;;
57567;SDS011;43403;51.948;5.922;2024-01-15T05:21:16;13.80;;;2.00;;
57567;SDS011;43403;51.948;5.922;2024-01-15T05:23:43;9.48;;;2.17;;
57567;SDS011;43403;51.948;5.922;2024-01-15T05:26:09;9.85;;;1.88;;
57567;SDS011;43403;51.948;5.922;2024-01-15T05:28:36;9.77;;;2.28;;
57567;SDS011;43403;51.948;5.922;2024-01-15T05:31:02;8.90;;;1.85;;
57567;SDS011;43403;51.948;5.922;2024-01-15T05:33:30;14.80;;;2.40;;
57567;SDS011;43403;51.948;5.922;2024-01-15T05:35:56;6.05;;;2.00;;
57567;SDS011;43403;51.948;5.922;2024-01-15T05:38:25;5.43;;;1.73;;
57567;SDS011;43403;51.948;5.922;2024-01-15T05:40:54;14.55;;;1.80;;
57567;SDS011;43403;51.948;5.922;2024-01-15T05:43:20;5.85;;;1.90;;
57567;SDS011;43403;51.948;5.922;2024-01-15T05:45:47;5.68;;;1.77;;
57567;SDS011;43403;51.948;5.922;2024-01-15T05:48:13;7.68;;;1.80;;
57567;SDS011;43403;51.948;5.922;2024-01-15T05:50:41;10.90;;;2.25;;
57567;SDS011;43403;51.948;5.922;2024-01-15T05:53:07;5.18;;;1.48;;
57567;SDS011;43403;51.948;5.922;2024-01-15T05:55:35;6.72;;;1.90;;
57567;SDS011;43403;51.948;5.922;2024-01-15T05:58:01;4.85;;;1.70;;
57567;SDS011;43403;51.948;5.922;2024-01-15T06:00:27;6.30;;;1.60;;
57567;SDS011;43403;51.948;5.922;2024-01-15T06:02:56;7.50;;;1.60;;
57567;SDS011;43403;51.948;5.922;2024-01-15T06:05:23;4.30;;;1.67;;
57567;SDS011;43403;51.948;5.922;2024-01-15T06:07:49;3.08;;;1.20;;
57567;SDS011;43403;51.948;5.922;2024-01-15T06:10:16;7.47;;;1.95;;
57567;SDS011;43403;51.948;5.922;2024-01-15T06:12:45;6.53;;;1.30;;
57567;SDS011;43403;51.948;5.922;2024-01-15T06:15:12;4.18;;;1.65;;
57567;SDS011;43403;51.948;5.922;2024-01-15T06:17:39;4.75;;;1.58;;
57567;SDS011;43403;51.948;5.922;2024-01-15T06:20:06;3.40;;;1.17;;
57567;SDS011;43403;51.948;5.922;2024-01-15T06:22:32;3.63;;;1.27;;
57567;SDS011;43403;51.948;5.922;2024-01-15T06:24:59;3.00;;;0.95;;
57567;SDS011;43403;51.948;5.922;2024-01-15T06:27:26;10.25;;;1.30;;
57567;SDS011;43403;51.948;5.922;2024-01-15T06:29:53;3.53;;;1.10;;
57567;SDS011;43403;51.948;5.922;2024-01-15T06:32:19;2.95;;;1.38;;
57567;SDS011;43403;51.948;5.922;2024-01-15T06:34:45;4.90;;;1.30;;
57567;SDS011;43403;51.948;5.922;2024-01-15T06:37:12;6.80;;;1.67;;
57567;SDS011;43403;51.948;5.922;2024-01-15T06:39:38;2.72;;;1.77;;
57567;SDS011;43403;51.948;5.922;2024-01-15T06:42:05;5.57;;;1.98;;
57567;SDS011;43403;51.948;5.922;2024-01-15T06:44:31;4.40;;;1.88;;
57567;SDS011;43403;51.948;5.922;2024-01-15T06:47:01;5.93;;;2.05;;
57567;SDS011;43403;51.948;5.922;2024-01-15T06:49:29;3.75;;;2.10;;
57567;SDS011;43403;51.948;5.922;2024-01-15T06:51:56;6.35;;;2.30;;
57567;SDS011;43403;51.948;5.922;2024-01-15T06:54:22;7.20;;;3.40;;
57567;SDS011;43403;51.948;5.922;2024-01-15T06:56:50;5.00;;;2.70;;
57567;SDS011;43403;51.948;5.922;2024-01-15T06:59:16;5.75;;;2.47;;
57567;SDS011;43403;51.948;5.922;2024-01-15T07:04:12;5.93;;;3.33;;
57567;SDS011;43403;51.948;5.922;2024-01-15T07:06:38;5.40;;;3.05;;
57567;SDS011;43403;51.948;5.922;2024-01-15T07:09:05;5.03;;;3.60;;
57567;SDS011;43403;51.948;5.922;2024-01-15T07:11:32;7.85;;;4.25;;
57567;SDS011;43403;51.948;5.922;2024-01-15T07:13:59;6.45;;;4.68;;
57567;SDS011;43403;51.948;5.922;2024-01-15T07:16:25;6.22;;;4.38;;
57567;SDS011;43403;51.948;5.922;2024-01-15T07:19:03;9.20;;;5.20;;
57567;SDS011;43403;51.948;5.922;2024-01-15T07:21:30;9.10;;;5.60;;
57567;SDS011;43403;51.948;5.922;2024-01-15T07:23:56;7.78;;;5.43;;
57567;SDS011;43403;51.948;5.922;2024-01-15T07:26:23;10.52;;;6.00;;
57567;SDS011;43403;51.948;5.922;2024-01-15T07:28:49;8.00;;;5.60;;
57567;SDS011;43403;51.948;5.922;2024-01-15T07:31:17;11.25;;;6.43;;
57567;SDS011;43403;51.948;5.922;2024-01-15T07:33:43;7.75;;;6.40;;
57567;SDS011;43403;51.948;5.922;2024-01-15T07:36:10;7.72;;;6.30;;
57567;SDS011;43403;51.948;5.922;2024-01-15T07:38:37;11.38;;;6.25;;
57567;SDS011;43403;51.948;5.922;2024-01-15T07:41:03;8.80;;;6.38;;
57567;SDS011;43403;51.948;5.922;2024-01-15T07:43:30;7.32;;;5.68;;
57567;SDS011;43403;51.948;5.922;2024-01-15T07:45:56;8.32;;;6.35;;
57567;SDS011;43403;51.948;5.922;2024-01-15T07:48:23;7.75;;;5.88;;
57567;SDS011;43403;51.948;5.922;2024-01-15T07:50:50;8.65;;;6.00;;
57567;SDS011;43403;51.948;5.922;2024-01-15T07:53:16;9.00;;;6.00;;
57567;SDS011;43403;51.948;5.922;2024-01-15T07:55:43;7.85;;;5.25;;
57567;SDS011;43403;51.948;5.922;2024-01-15T07:58:09;9.00;;;5.68;;
57567;SDS011;43403;51.948;5.922;2024-01-15T08:00:42;6.55;;;4.97;;
57567;SDS011;43403;51.948;5.922;2024-01-15T08:03:09;6.57;;;4.45;;
57567;SDS011;43403;51.948;5.922;2024-01-15T08:05:35;6.50;;;4.68;;
57567;SDS011;43403;51.948;5.922;2024-01-15T08:08:02;6.70;;;4.53;;
57567;SDS011;43403;51.948;5.922;2024-01-15T08:10:28;4.28;;;3.15;;
57567;SDS011;43403;51.948;5.922;2024-01-15T08:12:55;3.78;;;2.70;;
57567;SDS011;43403;51.948;5.922;2024-01-15T08:15:21;5.28;;;2.90;;
57567;SDS011;43403;51.948;5.922;2024-01-15T08:17:48;4.05;;;3.10;;
57567;SDS011;43403;51.948;5.922;2024-01-15T08:20:15;4.47;;;3.17;;
57567;SDS011;43403;51.948;5.922;2024-01-15T08:22:42;6.30;;;3.50;;
57567;SDS011;43403;51.948;5.922;2024-01-15T08:25:09;7.00;;;3.60;;
57567;SDS011;43403;51.948;5.922;2024-01-15T08:27:35;6.13;;;3.30;;
57567;SDS011;43403;51.948;5.922;2024-01-15T08:30:02;3.58;;;2.50;;
57567;SDS011;43403;51.948;5.922;2024-01-15T08:32:30;3.47;;;2.35;;
57567;SDS011;43403;51.948;5.922;2024-01-15T08:34:57;4.75;;;2.03;;
57567;SDS011;43403;51.948;5.922;2024-01-15T08:37:23;4.82;;;2.30;;
57567;SDS011;43403;51.948;5.922;2024-01-15T08:39:50;4.40;;;2.22;;
57567;SDS011;43403;51.948;5.922;2024-01-15T08:42:17;3.40;;;2.20;;
57567;SDS011;43403;51.948;5.922;2024-01-15T08:44:44;4.30;;;2.13;;
57567;SDS011;43403;51.948;5.922;2024-01-15T08:47:10;2.95;;;1.70;;
57567;SDS011;43403;51.948;5.922;2024-01-15T08:49:37;5.18;;;2.30;;
57567;SDS011;43403;51.948;5.922;2024-01-15T08:52:04;5.57;;;2.25;;
57567;SDS011;43403;51.948;5.922;2024-01-15T08:54:30;3.15;;;2.00;;
57567;SDS011;43403;51.948;5.922;2024-01-15T08:56:57;7.13;;;2.28;;
57567;SDS011;43403;51.948;5.922;2024-01-15T08:59:23;4.10;;;2.42;;
57567;SDS011;43403;51.948;5.922;2024-01-15T09:04:18;3.53;;;1.73;;
57567;SDS011;43403;51.948;5.922;2024-01-15T09:06:45;8.15;;;2.10;;
57567;SDS011;43403;51.948;5.922;2024-01-15T09:09:15;4.40;;;2.03;;
57567;SDS011;43403;51.948;5.922;2024-01-15T09:11:41;4.80;;;2.10;;
57567;SDS011;43403;51.948;5.922;2024-01-15T09:14:08;6.80;;;2.10;;
57567;SDS011;43403;51.948;5.922;2024-01-15T09:16:35;4.93;;;2.08;;
57567;SDS011;43403;51.948;5.922;2024-01-15T09:19:02;3.80;;;2.13;;
57567;SDS011;43403;51.948;5.922;2024-01-15T09:21:29;4.93;;;2.22;;
57567;SDS011;43403;51.948;5.922;2024-01-15T09:23:56;4.63;;;2.40;;
57567;SDS011;43403;51.948;5.922;2024-01-15T09:26:22;7.85;;;2.72;;
57567;SDS011;43403;51.948;5.922;2024-01-15T09:28:50;6.47;;;2.42;;
57567;SDS011;43403;51.948;5.922;2024-01-15T09:31:16;4.75;;;2.70;;
57567;SDS011;43403;51.948;5.922;2024-01-15T09:33:44;4.22;;;2.33;;
57567;SDS011;43403;51.948;5.922;2024-01-15T09:36:10;5.40;;;2.30;;
57567;SDS011;43403;51.948;5.922;2024-01-15T09:38:37;4.03;;;2.17;;
57567;SDS011;43403;51.948;5.922;2024-01-15T09:41:03;4.28;;;2.03;;
57567;SDS011;43403;51.948;5.922;2024-01-15T09:43:30;10.63;;;2.08;;
57567;SDS011;43403;51.948;5.922;2024-01-15T09:45:56;6.15;;;1.95;;
57567;SDS011;43403;51.948;5.922;2024-01-15T09:48:23;6.97;;;1.40;;
57567;SDS011;43403;51.948;5.922;2024-01-15T09:50:50;5.95;;;1.25;;
57567;SDS011;43403;51.948;5.922;2024-01-15T09:53:16;3.80;;;1.40;;
57567;SDS011;43403;51.948;5.922;2024-01-15T09:55:44;6.47;;;1.30;;
57567;SDS011;43403;51.948;5.922;2024-01-15T09:58:10;6.25;;;1.63;;
57567;SDS011;43403;51.948;5.922;2024-01-15T10:00:37;5.28;;;1.35;;
57567;SDS011;43403;51.948;5.922;2024-01-15T10:03:05;3.55;;;0.90;;
57567;SDS011;43403;51.948;5.922;2024-01-15T10:05:32;3.72;;;0.90;;
57567;SDS011;43403;51.948;5.922;2024-01-15T10:07:59;0.98;;;0.80;;
57567;SDS011;43403;51.948;5.922;2024-01-15T10:10:26;1.58;;;0.65;;
57567;SDS011;43403;51.948;5.922;2024-01-15T10:12:53;2.58;;;0.80;;
57567;SDS011;43403;51.948;5.922;2024-01-15T10:15:24;0.77;;;0.50;;
57567;SDS011;43403;51.948;5.922;2024-01-15T10:17:52;2.95;;;0.80;;
57567;SDS011;43403;51.948;5.922;2024-01-15T10:20:19;3.67;;;1.23;;
57567;SDS011;43403;51.948;5.922;2024-01-15T10:22:48;4.20;;;1.00;;
57567;SDS011;43403;51.948;5.922;2024-01-15T10:25:16;7.37;;;1.27;;
57567;SDS011;43403;51.948;5.922;2024-01-15T10:27:42;3.70;;;0.90;;
57567;SDS011;43403;51.948;5.922;2024-01-15T10:30:09;5.78;;;1.55;;
57567;SDS011;43403;51.948;5.922;2024-01-15T10:32:36;4.32;;;1.50;;
57567;SDS011;43403;51.948;5.922;2024-01-15T10:35:03;3.88;;;0.95;;
57567;SDS011;43403;51.948;5.922;2024-01-15T10:37:32;5.43;;;1.35;;
57567;SDS011;43403;51.948;5.922;2024-01-15T10:40:01;7.72;;;1.48;;
57567;SDS011;43403;51.948;5.922;2024-01-15T10:42:27;6.65;;;1.73;;
57567;SDS011;43403;51.948;5.922;2024-01-15T10:44:54;6.10;;;1.70;;
57567;SDS011;43403;51.948;5.922;2024-01-15T10:47:20;8.90;;;2.33;;
57567;SDS011;43403;51.948;5.922;2024-01-15T10:49:47;4.93;;;2.13;;
57567;SDS011;43403;51.948;5.922;2024-01-15T10:52:13;5.18;;;3.20;;
57567;SDS011;43403;51.948;5.922;2024-01-15T10:54:41;8.32;;;3.80;;
57567;SDS011;43403;51.948;5.922;2024-01-15T10:57:08;8.00;;;4.30;;
57567;SDS011;43403;51.948;5.922;2024-01-15T10:59:34;7.53;;;4.35;;
57567;SDS011;43403;51.948;5.922;2024-01-15T11:02:01;8.60;;;3.92;;
57567;SDS011;43403;51.948;5.922;2024-01-15T11:04:27;6.20;;;3.97;;
57567;SDS011;43403;51.948;5.922;2024-01-15T11:06:55;5.82;;;3.22;;
57567;SDS011;43403;51.948;5.922;2024-01-15T11:09:23;10.30;;;3.47;;
57567;SDS011;43403;51.948;5.922;2024-01-15T11:11:51;5.82;;;3.47;;
57567;SDS011;43403;51.948;5.922;2024-01-15T11:15:01;7.00;;;3.33;;
57567;SDS011;43403;51.948;5.922;2024-01-15T11:17:11;10.85;;;3.03;;
57567;SDS011;43403;51.948;5.922;2024-01-15T11:22:08;9.95;;;2.72;;
57567;SDS011;43403;51.948;5.922;2024-01-15T11:27:02;5.18;;;2.08;;
57567;SDS011;43403;51.948;5.922;2024-01-15T11:29:36;5.72;;;2.13;;
57567;SDS011;43403;51.948;5.922;2024-01-15T11:32:03;3.92;;;2.00;;
57567;SDS011;43403;51.948;5.922;2024-01-15T11:37:56;5.88;;;1.95;;
57567;SDS011;43403;51.948;5.922;2024-01-15T11:42:49;15.10;;;2.30;;
57567;SDS011;43403;51.948;5.922;2024-01-15T11:45:18;4.82;;;1.75;;
57567;SDS011;43403;51.948;5.922;2024-01-15T11:50:11;6.82;;;1.50;;
57567;SDS011;43403;51.948;5.922;2024-01-15T11:52:38;9.88;;;1.75;;
57567;SDS011;43403;51.948;5.922;2024-01-15T11:57:41;6.47;;;1.15;;
57567;SDS011;43403;51.948;5.922;2024-01-15T12:00:10;9.98;;;1.27;;
57567;SDS011;43403;51.948;5.922;2024-01-15T12:02:39;4.60;;;1.60;;
57567;SDS011;43403;51.948;5.922;2024-01-15T12:05:05;9.60;;;1.30;;
57567;SDS011;43403;51.948;5.922;2024-01-15T12:07:34;4.13;;;1.08;;
57567;SDS011;43403;51.948;5.922;2024-01-15T12:10:01;8.82;;;1.17;;
57567;SDS011;43403;51.948;5.922;2024-01-15T12:17:34;6.82;;;1.38;;
57567;SDS011;43403;51.948;5.922;2024-01-15T12:20:01;6.15;;;1.10;;
57567;SDS011;43403;51.948;5.922;2024-01-15T12:22:27;3.92;;;1.25;;
57567;SDS011;43403;51.948;5.922;2024-01-15T12:24:54;5.68;;;1.17;;
57567;SDS011;43403;51.948;5.922;2024-01-15T12:27:20;10.93;;;1.95;;
57567;SDS011;43403;51.948;5.922;2024-01-15T12:29:47;5.93;;;1.10;;
57567;SDS011;43403;51.948;5.922;2024-01-15T12:32:13;8.00;;;1.83;;
57567;SDS011;43403;51.948;5.922;2024-01-15T12:34:40;9.45;;;1.42;;
57567;SDS011;43403;51.948;5.922;2024-01-15T12:37:07;4.45;;;1.35;;
57567;SDS011;43403;51.948;5.922;2024-01-15T12:39:34;7.00;;;1.08;;
57567;SDS011;43403;51.948;5.922;2024-01-15T12:42:01;4.80;;;1.20;;
57567;SDS011;43403;51.948;5.922;2024-01-15T12:44:28;7.20;;;1.30;;
57567;SDS011;43403;51.948;5.922;2024-01-15T12:46:54;12.15;;;2.03;;
57567;SDS011;43403;51.948;5.922;2024-01-15T12:49:21;6.82;;;1.70;;
57567;SDS011;43403;51.948;5.922;2024-01-15T12:51:54;6.47;;;1.40;;
57567;SDS011;43403;51.948;5.922;2024-01-15T12:54:20;7.72;;;1.50;;
57567;SDS011;43403;51.948;5.922;2024-01-15T12:56:47;4.20;;;1.02;;
57567;SDS011;43403;51.948;5.922;2024-01-15T12:59:14;5.88;;;1.10;;
57567;SDS011;43403;51.948;5.922;2024-01-15T13:01:40;5.15;;;1.20;;
57567;SDS011;43403;51.948;5.922;2024-01-15T13:04:07;3.47;;;0.90;;
57567;SDS011;43403;51.948;5.922;2024-01-15T13:06:37;4.30;;;1.02;;
57567;SDS011;43403;51.948;5.922;2024-01-15T13:09:04;5.95;;;0.88;;
57567;SDS011;43403;51.948;5.922;2024-01-15T13:11:33;5.97;;;0.85;;
57567;SDS011;43403;51.948;5.922;2024-01-15T13:13:59;2.80;;;0.95;;
57567;SDS011;43403;51.948;5.922;2024-01-15T13:16:26;5.78;;;1.10;;
57567;SDS011;43403;51.948;5.922;2024-01-15T13:21:22;7.53;;;1.00;;
57567;SDS011;43403;51.948;5.922;2024-01-15T13:23:48;3.15;;;1.40;;
57567;SDS011;43403;51.948;5.922;2024-01-15T13:26:15;4.25;;;0.88;;
57567;SDS011;43403;51.948;5.922;2024-01-15T13:28:42;5.55;;;0.80;;
57567;SDS011;43403;51.948;5.922;2024-01-15T13:31:08;6.07;;;1.10;;
57567;SDS011;43403;51.948;5.922;2024-01-15T13:33:35;2.65;;;0.60;;
57567;SDS011;43403;51.948;5.922;2024-01-15T13:36:01;6.15;;;1.08;;
57567;SDS011;43403;51.948;5.922;2024-01-15T13:38:29;4.05;;;0.90;;
57567;SDS011;43403;51.948;5.922;2024-01-15T13:41:00;2.70;;;0.80;;
57567;SDS011;43403;51.948;5.922;2024-01-15T13:43:27;2.22;;;1.02;;
57567;SDS011;43403;51.948;5.922;2024-01-15T13:45:53;6.28;;;0.98;;
57567;SDS011;43403;51.948;5.922;2024-01-15T13:48:21;2.80;;;0.98;;
57567;SDS011;43403;51.948;5.922;2024-01-15T13:50:47;5.32;;;1.02;;
57567;SDS011;43403;51.948;5.922;2024-01-15T13:53:14;6.38;;;1.13;;
57567;SDS011;43403;51.948;5.922;2024-01-15T13:55:40;10.15;;;1.73;;
57567;SDS011;43403;51.948;5.922;2024-01-15T13:58:07;6.20;;;1.02;;
57567;SDS011;43403;51.948;5.922;2024-01-15T14:00:33;4.40;;;1.25;;
57567;SDS011;43403;51.948;5.922;2024-01-15T14:03:00;4.18;;;0.77;;
57567;SDS011;43403;51.948;5.922;2024-01-15T14:05:26;6.82;;;0.90;;
57567;SDS011;43403;51.948;5.922;2024-01-15T14:07:53;5.07;;;0.90;;
57567;SDS011;43403;51.948;5.922;2024-01-15T14:10:19;6.30;;;1.05;;
57567;SDS011;43403;51.948;5.922;2024-01-15T14:12:46;4.90;;;1.38;;
57567;SDS011;43403;51.948;5.922;2024-01-15T14:15:13;4.30;;;1.10;;
57567;SDS011;43403;51.948;5.922;2024-01-15T14:17:40;6.53;;;1.10;;
57567;SDS011;43403;51.948;5.922;2024-01-15T14:20:06;4.43;;;1.30;;
57567;SDS011;43403;51.948;5.922;2024-01-15T14:25:01;5.40;;;1.05;;
57567;SDS011;43403;51.948;5.922;2024-01-15T14:27:28;5.88;;;1.17;;
57567;SDS011;43403;51.948;5.922;2024-01-15T14:29:55;8.10;;;1.27;;
57567;SDS011;43403;51.948;5.922;2024-01-15T14:32:21;5.47;;;1.25;;
57567;SDS011;43403;51.948;5.922;2024-01-15T14:34:48;6.82;;;1.20;;
57567;SDS011;43403;51.948;5.922;2024-01-15T14:37:15;5.50;;;1.17;;
57567;SDS011;43403;51.948;5.922;2024-01-15T14:39:42;5.70;;;1.13;;
57567;SDS011;43403;51.948;5.922;2024-01-15T14:42:09;4.55;;;1.30;;
57567;SDS011;43403;51.948;5.922;2024-01-15T14:44:35;3.95;;;1.42;;
57567;SDS011;43403;51.948;5.922;2024-01-15T14:47:04;3.90;;;1.08;;
57567;SDS011;43403;51.948;5.922;2024-01-15T14:49:31;3.78;;;0.90;;
57567;SDS011;43403;51.948;5.922;2024-01-15T14:51:58;7.25;;;1.10;;
57567;SDS011;43403;51.948;5.922;2024-01-15T14:54:24;5.15;;;1.20;;
57567;SDS011;43403;51.948;5.922;2024-01-15T14:56:52;5.25;;;1.30;;
57567;SDS011;43403;51.948;5.922;2024-01-15T14:59:18;7.85;;;1.58;;
57567;SDS011;43403;51.948;5.922;2024-01-15T15:01:45;7.95;;;1.35;;
57567;SDS011;43403;51.948;5.922;2024-01-15T15:04:11;5.07;;;1.48;;
57567;SDS011;43403;51.948;5.922;2024-01-15T15:06:38;5.30;;;1.23;;
57567;SDS011;43403;51.948;5.922;2024-01-15T15:09:05;7.38;;;1.55;;
57567;SDS011;43403;51.948;5.922;2024-01-15T15:11:36;4.55;;;1.58;;
57567;SDS011;43403;51.948;5.922;2024-01-15T15:14:02;6.75;;;1.52;;